EIK weather

Erie Municipal Airport
Erie, Colorado, United States

Public forecast

Using degrees Fahrenheit for public forecast. Weather courtesy of forecast.io.

Current aviation weather report (METAR) for Erie Municipal Airport

Retrieved 2019/12/06 12:35 UTC (12 minutes ago):

KEIK 061235Z AUTO 00000KT 10SM CLR M05/M05 A3030 RMK AO2 T10461052

Closest aviation forecast (TAF) to Erie Municipal Airport

Closest forecast is Rocky Mountain Metropolitan Airport, 6.9 nm (12.7 km) SSW. Retrieved 2019/12/06 12:33 UTC (14 minutes ago):

TAF KBJC 061130Z 0612/0712 VRB05KT P6SM SCT200 FM061900 02006KT P6SM SCT150 SCT200 FM070300 28008KT P6SM SCT200